createdAt,value
2019-01-29T00:01:31.798Z,37.63
2019-01-29T00:04:06.847Z,46.03
2019-01-29T00:06:40.719Z,39.88
2019-01-29T00:09:10.795Z,32.13
2019-01-29T00:11:41.929Z,34.20
2019-01-29T00:14:11.845Z,21.97
2019-01-29T00:16:46.085Z,26.63
2019-01-29T00:19:16.287Z,31.43
2019-01-29T00:21:55.955Z,24.93
2019-01-29T00:24:28.408Z,16.42
2019-01-29T00:27:00.323Z,18.97
2019-01-29T00:29:31.093Z,20.05
2019-01-29T00:32:04.327Z,26.00
2019-01-29T00:34:42.941Z,17.98
2019-01-29T00:37:17.278Z,16.90
2019-01-29T00:39:46.991Z,16.90
2019-01-29T00:42:21.881Z,19.23
2019-01-29T00:45:01.255Z,17.53
2019-01-29T00:47:35.505Z,16.35
2019-01-29T00:50:07.619Z,23.90
2019-01-29T00:52:42.146Z,23.38
2019-01-29T00:55:15.462Z,28.83
2019-01-29T00:57:45.400Z,24.60
2019-01-29T01:00:23.096Z,20.30
2019-01-29T01:03:00.297Z,13.72
2019-01-29T01:05:32.191Z,18.52
2019-01-29T01:08:02.089Z,21.37
2019-01-29T01:10:33.589Z,27.67
2019-01-29T01:13:03.518Z,24.47
2019-01-29T01:15:33.410Z,26.73
2019-01-29T01:18:03.203Z,32.07
2019-01-29T01:20:32.991Z,37.17
2019-01-29T01:23:02.891Z,27.33
2019-01-29T01:25:33.734Z,32.60
2019-01-29T01:28:05.081Z,31.67
2019-01-29T01:30:35.032Z,27.02
2019-01-29T01:33:04.789Z,37.43
2019-01-29T01:35:34.703Z,29.90
2019-01-29T01:38:04.516Z,29.40
2019-01-29T01:40:38.871Z,26.00
2019-01-29T01:43:08.998Z,23.32
2019-01-29T01:45:38.785Z,28.75
2019-01-29T01:48:08.698Z,28.93
2019-01-29T01:50:38.512Z,27.43
2019-01-29T01:53:09.714Z,32.00
2019-01-29T01:55:42.391Z,28.47
2019-01-29T01:58:12.298Z,30.37
2019-01-29T02:00:42.114Z,25.53
2019-01-29T02:03:15.521Z,21.33
2019-01-29T02:05:44.824Z,24.43
2019-01-29T02:08:17.508Z,25.00
2019-01-29T02:10:59.063Z,21.50
2019-01-29T02:13:40.454Z,27.48
2019-01-29T02:16:20.113Z,25.80
2019-01-29T02:18:55.959Z,19.93
2019-01-29T02:21:42.333Z,21.85
2019-01-29T02:24:16.753Z,31.10
2019-01-29T02:26:59.319Z,22.48
2019-01-29T02:29:35.266Z,19.32
2019-01-29T02:32:23.558Z,20.03
2019-01-29T02:35:05.146Z,18.57
2019-01-29T02:37:35.041Z,27.83
2019-01-29T02:40:07.745Z,22.27
2019-01-29T02:42:37.625Z,21.33
2019-01-29T02:45:11.508Z,20.33
2019-01-29T02:47:43.338Z,29.93
2019-01-29T02:50:15.434Z,34.13
2019-01-29T02:52:45.375Z,35.97
2019-01-29T02:55:17.627Z,27.10
2019-01-29T02:57:49.102Z,29.17
2019-01-29T03:00:22.875Z,18.47
2019-01-29T03:02:57.629Z,22.00
2019-01-29T03:05:28.247Z,20.23
2019-01-29T03:07:59.140Z,24.30
2019-01-29T03:10:30.059Z,22.85
2019-01-29T03:12:59.916Z,22.10
2019-01-29T03:15:34.134Z,21.80
2019-01-29T03:18:04.028Z,15.23
2019-01-29T03:20:36.961Z,27.10
2019-01-29T03:23:06.880Z,24.60
2019-01-29T03:25:36.686Z,39.00
2019-01-29T03:28:06.452Z,37.95
2019-01-29T03:30:36.266Z,50.60
2019-01-29T03:33:06.061Z,47.93
2019-01-29T03:35:37.665Z,45.70
2019-01-29T03:38:07.447Z,40.07
2019-01-29T03:40:37.279Z,49.90
2019-01-29T03:43:07.132Z,41.07
2019-01-29T03:45:37.003Z,45.63
2019-01-29T03:48:06.819Z,23.53
2019-01-29T03:50:36.657Z,29.50
2019-01-29T03:53:09.508Z,26.83
2019-01-29T03:55:39.288Z,26.40
2019-01-29T03:58:09.903Z,17.20
2019-01-29T04:00:39.699Z,27.33
2019-01-29T04:03:19.267Z,23.33
2019-01-29T04:05:50.153Z,27.90
2019-01-29T04:08:20.425Z,30.80
2019-01-29T04:10:50.206Z,40.33
2019-01-29T04:13:20.472Z,43.97
2019-01-29T04:15:54.857Z,31.13
2019-01-29T04:18:26.845Z,17.77
2019-01-29T04:20:58.619Z,16.47
2019-01-29T04:23:31.262Z,21.90
2019-01-29T04:26:08.257Z,31.30
2019-01-29T04:28:38.059Z,41.90
2019-01-29T04:31:10.552Z,27.33
2019-01-29T04:33:40.338Z,41.43
2019-01-29T04:36:10.155Z,34.23
2019-01-29T04:38:44.619Z,58.30
2019-01-29T04:41:19.585Z,40.83
2019-01-29T04:44:16.291Z,43.40
2019-01-29T04:46:52.920Z,28.30
2019-01-29T04:49:50.417Z,30.13
2019-01-29T04:52:40.597Z,34.70
2019-01-29T04:55:38.371Z,33.25
2019-01-29T04:58:15.247Z,27.40
2019-01-29T05:00:47.172Z,21.37
2019-01-29T05:03:20.484Z,19.93
2019-01-29T05:05:50.322Z,18.23
2019-01-29T05:08:21.404Z,53.43
2019-01-29T05:10:51.356Z,22.27
2019-01-29T05:13:21.167Z,22.93
2019-01-29T05:15:52.014Z,22.30
2019-01-29T05:18:21.817Z,21.70
2019-01-29T05:20:51.594Z,21.67
2019-01-29T05:23:28.483Z,20.67
2019-01-29T05:25:58.238Z,21.63
2019-01-29T05:28:28.126Z,24.57
2019-01-29T05:30:57.887Z,34.90
2019-01-29T05:33:27.728Z,21.80
2019-01-29T05:35:57.515Z,23.47
2019-01-29T05:38:27.451Z,18.02
2019-01-29T05:41:00.334Z,21.77
2019-01-29T05:43:33.521Z,19.43
2019-01-29T05:46:03.307Z,17.43
2019-01-29T05:48:33.144Z,24.03
2019-01-29T05:51:07.614Z,18.90
2019-01-29T05:53:37.404Z,17.30
2019-01-29T05:56:07.229Z,17.77
2019-01-29T05:58:37.080Z,19.75
2019-01-29T06:01:06.882Z,13.17
2019-01-29T06:03:39.810Z,15.08
2019-01-29T06:06:09.851Z,32.13
2019-01-29T06:08:39.629Z,15.57
2019-01-29T06:11:09.569Z,15.83
2019-01-29T06:13:45.497Z,25.87
2019-01-29T06:16:18.302Z,21.30
2019-01-29T06:18:49.287Z,18.73
2019-01-29T06:21:19.205Z,16.50
2019-01-29T06:23:49.015Z,17.17
2019-01-29T06:26:18.835Z,30.30
2019-01-29T06:28:48.687Z,23.57
2019-01-29T06:31:18.479Z,16.93
2019-01-29T06:34:01.961Z,26.33
2019-01-29T06:36:33.837Z,47.43
2019-01-29T06:39:12.338Z,33.67
2019-01-29T06:42:06.938Z,24.07
2019-01-29T06:44:58.051Z,42.23
2019-01-29T06:47:54.853Z,24.37
2019-01-29T06:50:52.811Z,18.37
2019-01-29T06:53:40.881Z,19.50
2019-01-29T06:56:18.022Z,19.80
2019-01-29T06:59:06.037Z,14.33
2019-01-29T07:02:12.939Z,16.03
2019-01-29T07:05:04.975Z,25.57
2019-01-29T07:08:07.882Z,35.57
2019-01-29T07:11:09.656Z,11.53
2019-01-29T07:17:29.024Z,13.70
2019-01-29T07:20:23.416Z,8.77
2019-01-29T07:23:05.782Z,10.57
2019-01-29T07:25:55.977Z,9.90
2019-01-29T07:28:42.307Z,8.13
2019-01-29T07:35:14.562Z,23.70
2019-01-29T07:38:22.342Z,10.90
2019-01-29T07:41:47.286Z,10.93
2019-01-29T07:45:01.560Z,13.40
2019-01-29T07:51:17.764Z,10.70
2019-01-29T07:54:33.176Z,9.17
2019-01-29T08:00:42.491Z,6.75
2019-01-29T08:03:17.275Z,6.47
2019-01-29T08:06:25.626Z,30.23
2019-01-29T08:09:28.108Z,9.20
2019-01-29T08:12:35.432Z,7.93
2019-01-29T08:15:22.948Z,5.73
2019-01-29T08:18:11.693Z,5.90
2019-01-29T08:20:55.566Z,10.30
2019-01-29T08:23:25.714Z,8.30
2019-01-29T08:26:33.304Z,6.37
2019-01-29T08:29:16.486Z,5.67
2019-01-29T08:35:13.935Z,17.03
2019-01-29T08:38:15.626Z,15.03
2019-01-29T08:41:30.130Z,21.47
2019-01-29T08:44:38.771Z,17.80
2019-01-29T08:50:09.421Z,14.73
2019-01-29T08:53:29.842Z,12.28
2019-01-29T08:59:49.724Z,11.57
2019-01-29T09:02:41.417Z,10.68
2019-01-29T09:05:19.898Z,10.77
2019-01-29T09:07:51.938Z,6.90
2019-01-29T09:10:28.103Z,8.88
2019-01-29T09:13:20.411Z,7.77
2019-01-29T09:16:17.142Z,9.83
2019-01-29T09:19:00.379Z,10.87
2019-01-29T09:25:07.434Z,15.03
2019-01-29T09:27:39.411Z,12.43
2019-01-29T09:30:21.203Z,8.50
2019-01-29T09:32:58.885Z,6.03
2019-01-29T09:35:33.657Z,8.03
2019-01-29T09:45:23.581Z,11.40
2019-01-29T09:48:25.088Z,9.70
2019-01-29T09:51:00.270Z,7.25
2019-01-29T09:53:35.273Z,5.80
2019-01-29T09:56:20.010Z,5.08
2019-01-29T09:59:11.517Z,6.90
2019-01-29T10:02:17.194Z,5.33
2019-01-29T10:04:55.415Z,9.23
2019-01-29T10:07:35.377Z,6.50
2019-01-29T10:10:21.626Z,6.03
2019-01-29T10:13:16.463Z,10.80
2019-01-29T10:16:17.131Z,11.20
2019-01-29T10:18:50.374Z,7.53
2019-01-29T10:21:25.647Z,5.53
2019-01-29T10:24:15.198Z,5.90
2019-01-29T10:27:02.239Z,4.73
2019-01-29T10:29:36.369Z,7.12
2019-01-29T10:32:38.784Z,8.77
2019-01-29T10:35:43.962Z,4.10
2019-01-29T10:38:18.023Z,5.40
2019-01-29T10:40:47.922Z,3.50
2019-01-29T10:43:17.717Z,4.47
2019-01-29T10:45:47.541Z,4.90
2019-01-29T10:48:17.455Z,3.07
2019-01-29T10:50:57.086Z,3.27
2019-01-29T10:53:26.962Z,2.57
2019-01-29T10:55:56.882Z,3.27
2019-01-29T10:58:30.985Z,3.87
2019-01-29T11:01:00.931Z,5.27
2019-01-29T11:03:44.951Z,7.40
2019-01-29T11:06:17.684Z,4.60
2019-01-29T11:08:47.489Z,6.22
2019-01-29T11:11:24.864Z,3.80
2019-01-29T11:13:55.318Z,5.77
2019-01-29T11:16:25.256Z,4.42
2019-01-29T11:19:02.946Z,4.33
2019-01-29T11:21:26.824Z,3.17
2019-01-29T11:23:56.830Z,3.13
2019-01-29T11:26:26.761Z,4.37
2019-01-29T11:28:56.779Z,2.80
2019-01-29T11:31:29.522Z,3.00
2019-01-29T11:33:58.689Z,3.10
2019-01-29T11:36:28.495Z,3.13
2019-01-29T11:38:58.454Z,2.90
2019-01-29T11:41:28.261Z,3.17
2019-01-29T11:43:58.113Z,3.30
2019-01-29T11:46:27.966Z,2.37
2019-01-29T11:48:57.758Z,2.10
2019-01-29T11:51:31.226Z,2.22
2019-01-29T11:54:01.012Z,1.77
2019-01-29T11:56:32.584Z,1.53
2019-01-29T11:59:02.361Z,2.47
2019-01-29T12:01:32.125Z,2.90
2019-01-29T12:04:05.988Z,1.93
2019-01-29T12:06:35.768Z,2.60
2019-01-29T12:09:12.887Z,2.43
2019-01-29T12:11:44.426Z,2.73
2019-01-29T12:14:16.509Z,2.40
2019-01-29T12:16:46.258Z,2.37
2019-01-29T12:19:16.035Z,2.90
2019-01-29T12:21:52.546Z,2.20
2019-01-29T12:24:22.922Z,1.70
2019-01-29T12:26:54.325Z,2.00
2019-01-29T12:29:24.543Z,2.55
2019-01-29T12:31:57.067Z,1.80
2019-01-29T12:34:34.716Z,1.67
2019-01-29T12:37:18.498Z,2.12
2019-01-29T12:39:50.751Z,2.17
2019-01-29T12:42:24.905Z,2.40
2019-01-29T12:45:08.420Z,2.23
2019-01-29T12:47:39.429Z,2.80
2019-01-29T12:50:28.676Z,2.10
2019-01-29T12:53:06.525Z,1.80
2019-01-29T12:55:36.492Z,1.40
2019-01-29T12:58:06.396Z,1.70
2019-01-29T13:00:37.746Z,1.82
2019-01-29T13:03:11.205Z,1.90
2019-01-29T13:05:41.521Z,2.90
2019-01-29T13:08:12.270Z,2.80
2019-01-29T13:10:42.298Z,2.87
2019-01-29T13:13:12.160Z,3.30
2019-01-29T13:15:42.034Z,2.40
2019-01-29T13:18:12.210Z,4.37
2019-01-29T13:21:10.431Z,5.10
2019-01-29T13:24:07.260Z,3.80
2019-01-29T13:26:44.273Z,3.47
2019-01-29T13:29:15.997Z,3.20
2019-01-29T13:31:57.661Z,3.00
2019-01-29T13:34:28.975Z,4.40
2019-01-29T13:37:14.852Z,2.60
2019-01-29T13:39:46.121Z,2.80
2019-01-29T13:42:36.648Z,1.83
2019-01-29T13:45:22.963Z,1.87
2019-01-29T13:48:05.758Z,2.63
2019-01-29T13:50:50.980Z,2.30
2019-01-29T13:53:20.759Z,3.07
2019-01-29T13:55:55.334Z,2.70
2019-01-29T13:58:25.405Z,3.27
2019-01-29T14:00:55.340Z,3.67
2019-01-29T14:03:25.104Z,2.62
2019-01-29T14:06:00.581Z,2.63
2019-01-29T14:08:30.355Z,2.40
2019-01-29T14:11:00.156Z,4.00
2019-01-29T14:14:05.037Z,3.30
2019-01-29T14:16:44.870Z,5.58
2019-01-29T14:22:57.939Z,5.37
2019-01-29T14:25:39.195Z,6.80
2019-01-29T14:31:47.631Z,3.23
2019-01-29T14:37:47.303Z,3.27
2019-01-29T14:40:51.039Z,3.80
2019-01-29T14:43:47.793Z,4.50
2019-01-29T14:46:42.604Z,5.00
2019-01-29T14:52:34.211Z,6.60
2019-01-29T14:55:20.309Z,10.47
2019-01-29T14:57:59.962Z,6.23
2019-01-29T15:00:46.703Z,7.22
2019-01-29T15:06:43.734Z,5.60
2019-01-29T15:09:13.922Z,3.73
2019-01-29T15:11:49.800Z,3.70
2019-01-29T15:14:41.253Z,3.37
2019-01-29T15:17:34.442Z,3.43
2019-01-29T15:20:09.590Z,2.83
2019-01-29T15:22:41.132Z,2.60
2019-01-29T15:25:17.949Z,2.80
2019-01-29T15:27:48.266Z,2.57
2019-01-29T15:30:29.066Z,3.07
2019-01-29T15:33:09.853Z,4.37
2019-01-29T15:35:54.303Z,3.90
2019-01-29T15:38:24.429Z,3.00
2019-01-29T15:41:14.759Z,3.60
2019-01-29T15:43:45.867Z,1.80
2019-01-29T15:46:41.891Z,3.17
2019-01-29T15:49:14.434Z,6.13
2019-01-29T15:52:10.295Z,3.33
2019-01-29T15:55:12.961Z,3.70
2019-01-29T15:58:28.561Z,2.90
2019-01-29T16:01:45.128Z,3.93
2019-01-29T16:04:53.593Z,3.17
2019-01-29T16:07:58.672Z,3.43
2019-01-29T16:10:40.065Z,3.80
2019-01-29T16:13:17.064Z,3.13
2019-01-29T16:19:07.714Z,3.87
2019-01-29T16:22:05.891Z,4.57
2019-01-29T16:24:45.068Z,3.67
2019-01-29T16:27:46.698Z,4.30
2019-01-29T16:30:53.685Z,5.47
2019-01-29T16:33:34.295Z,3.55
2019-01-29T16:36:11.724Z,2.83
2019-01-29T16:38:48.686Z,5.80
2019-01-29T16:41:20.591Z,6.20
2019-01-29T16:43:54.603Z,5.40
2019-01-29T16:46:32.088Z,6.20
2019-01-29T16:49:07.672Z,11.73
2019-01-29T16:51:54.479Z,91.50
2019-01-29T16:54:49.724Z,40.87
2019-01-29T16:57:49.719Z,13.47
2019-01-29T17:00:54.325Z,9.35
2019-01-29T17:03:32.659Z,6.97
2019-01-29T17:06:22.971Z,8.13
2019-01-29T17:09:23.640Z,5.10
2019-01-29T17:12:23.307Z,7.87
2019-01-29T17:14:59.143Z,5.37
2019-01-29T17:17:49.320Z,3.17
2019-01-29T17:20:55.325Z,8.47
2019-01-29T17:23:28.642Z,4.67
2019-01-29T17:26:12.964Z,6.53
2019-01-29T17:29:12.794Z,5.62
2019-01-29T17:31:56.344Z,4.03
2019-01-29T17:34:31.692Z,7.25
2019-01-29T17:37:35.172Z,21.17
2019-01-29T17:40:42.111Z,17.50
2019-01-29T17:43:45.761Z,19.87
2019-01-29T17:46:40.927Z,13.08
2019-01-29T17:49:28.577Z,15.73
2019-01-29T17:52:12.216Z,13.90
2019-01-29T17:55:13.817Z,10.97
2019-01-29T17:58:00.223Z,8.95
2019-01-29T18:00:40.257Z,7.77
2019-01-29T18:03:35.632Z,9.33
2019-01-29T18:06:35.657Z,8.50
2019-01-29T18:09:25.238Z,6.43
2019-01-29T18:12:28.832Z,8.70
2019-01-29T18:15:26.538Z,9.50
2019-01-29T18:18:21.726Z,9.67
2019-01-29T18:21:16.530Z,22.50
2019-01-29T18:24:20.969Z,11.90
2019-01-29T18:27:24.489Z,15.23
2019-01-29T18:30:18.847Z,12.70
2019-01-29T18:33:07.536Z,9.63
2019-01-29T18:36:05.377Z,11.07
2019-01-29T18:38:47.109Z,3.80
2019-01-29T18:41:28.251Z,10.30
2019-01-29T18:44:10.340Z,14.70
2019-01-29T18:46:49.930Z,18.67
2019-01-29T18:49:29.910Z,16.90
2019-01-29T18:52:12.103Z,15.40
2019-01-29T18:55:05.248Z,8.07
2019-01-29T18:58:11.872Z,10.52
2019-01-29T19:01:06.332Z,8.33
2019-01-29T19:04:04.693Z,6.53
2019-01-29T19:07:27.328Z,9.43
2019-01-29T19:10:48.845Z,7.33
2019-01-29T19:13:51.804Z,8.40
2019-01-29T19:16:58.058Z,7.47
2019-01-29T19:19:48.349Z,7.53
2019-01-29T19:22:57.550Z,6.77
2019-01-29T19:25:48.595Z,9.63
2019-01-29T19:28:44.094Z,7.17
2019-01-29T19:31:36.987Z,7.40
2019-01-29T19:34:31.444Z,8.10
2019-01-29T19:37:49.719Z,7.28
2019-01-29T19:40:57.892Z,7.47
2019-01-29T19:44:05.166Z,7.37
2019-01-29T19:47:06.811Z,6.42
2019-01-29T19:50:14.605Z,7.30
2019-01-29T19:53:23.242Z,8.87
2019-01-29T19:56:15.936Z,8.63
2019-01-29T19:59:14.324Z,9.13
2019-01-29T20:02:22.085Z,8.40
2019-01-29T20:05:24.056Z,12.70
2019-01-29T20:08:24.676Z,8.83
2019-01-29T20:11:24.285Z,12.33
2019-01-29T20:14:28.314Z,7.87
2019-01-29T20:17:20.221Z,10.23
2019-01-29T20:20:06.821Z,9.13
2019-01-29T20:22:47.754Z,12.35
2019-01-29T20:25:30.589Z,9.35
2019-01-29T20:28:01.941Z,9.23
2019-01-29T20:30:37.710Z,9.70
2019-01-29T20:33:25.827Z,10.27
2019-01-29T20:36:06.549Z,8.30
2019-01-29T20:39:03.544Z,6.60
2019-01-29T20:41:51.738Z,7.27
2019-01-29T20:44:35.313Z,9.10
2019-01-29T20:47:18.778Z,9.33
2019-01-29T20:49:56.472Z,8.47
2019-01-29T20:52:45.338Z,9.27
2019-01-29T20:55:24.352Z,8.47
2019-01-29T20:58:02.042Z,8.07
2019-01-29T21:00:53.342Z,8.98
2019-01-29T21:03:37.981Z,8.90
2019-01-29T21:06:23.285Z,7.80
2019-01-29T21:09:05.633Z,8.67
2019-01-29T21:12:12.217Z,7.97
2019-01-29T21:15:25.185Z,5.78
2019-01-29T21:18:49.116Z,6.45
2019-01-29T21:28:40.295Z,7.30
2019-01-29T21:31:45.056Z,8.23
2019-01-29T21:34:26.978Z,8.33
2019-01-29T21:37:22.088Z,7.47
2019-01-29T21:40:24.199Z,8.80
2019-01-29T21:43:02.648Z,8.47
2019-01-29T21:45:36.896Z,7.93
2019-01-29T21:48:31.178Z,6.87
2019-01-29T21:53:50.601Z,6.17
2019-01-29T21:56:42.020Z,6.92
2019-01-29T21:59:28.253Z,7.10
2019-01-29T22:02:09.479Z,8.03
2019-01-29T22:04:56.568Z,9.00
2019-01-29T22:07:57.529Z,9.63
2019-01-29T22:10:33.962Z,7.83
2019-01-29T22:13:14.150Z,8.00
2019-01-29T22:15:54.478Z,11.20
2019-01-29T22:18:51.676Z,7.23
2019-01-29T22:21:50.197Z,6.53
2019-01-29T22:24:50.590Z,8.07
2019-01-29T22:27:49.301Z,7.87
2019-01-29T22:30:47.493Z,8.10
2019-01-29T22:33:38.970Z,7.87
2019-01-29T22:36:30.023Z,7.03
2019-01-29T22:39:24.735Z,6.67
2019-01-29T22:45:36.032Z,6.97
2019-01-29T22:48:27.792Z,6.33
2019-01-29T22:51:34.566Z,5.83
2019-01-29T22:54:29.485Z,8.30
2019-01-29T23:00:31.379Z,7.30
2019-01-29T23:09:39.945Z,6.63
2019-01-29T23:12:33.641Z,6.73
2019-01-29T23:15:26.985Z,5.92
2019-01-29T23:18:13.127Z,8.20
2019-01-29T23:20:51.794Z,7.73
2019-01-29T23:23:25.955Z,8.77
2019-01-29T23:26:23.744Z,7.97
2019-01-29T23:29:27.792Z,8.20
2019-01-29T23:32:17.119Z,7.77
2019-01-29T23:35:04.218Z,7.07
2019-01-29T23:38:18.560Z,7.13
2019-01-29T23:40:55.805Z,7.67
2019-01-29T23:47:32.428Z,7.00
2019-01-29T23:50:44.545Z,6.67
2019-01-29T23:54:04.520Z,6.87
2019-01-29T23:57:05.724Z,6.63
2019-01-29T23:59:56.562Z,7.30
